M I D A S
Marine Information and Data Acquisition System
Tripno 1883 of the Zeeleeuw from 2010-05-17 06:33:20 to 2010-05-17 16:14:12
Back to CruiseResearch ActivitiesStationsMapUnderway DataData graphs

EquipmentUnitsComment
TimeDGPSUTC
LatitudeDGPSDM.mWGS84
LongitudeDGPSDM.mWGS84
HeadingGyrodeg 
SOGDGPSknotsSpeed over ground
COGDGPSdegCourse over ground
DepthEcho soundermeters200 kHz
Missing or incorrect values are displayed as -999
Navigation data collected by the RV Zeeleeuw from 2010-05-17 06:19:13 to 2010-05-17 16:23:30
                                                                                    Next 1000 lines
Time Latitude Longitude Heading SOG COG Depth
2010-05-17 06:19:22 51°13.662 2°55.96 126.7 -999 234 -999
2010-05-17 06:19:28 51°13.662 2°55.96 126.8 -999 189 -999
2010-05-17 06:19:32 51°13.662 2°55.96 126.8 0.1 192 -999
2010-05-17 06:19:37 51°13.662 2°55.96 126.8 0.1 142 -999
2010-05-17 06:19:42 51°13.662 2°55.96 126.8 0.1 119 -999
2010-05-17 06:19:47 51°13.662 2°55.961 126.9 0.1 127 -999
2010-05-17 06:19:52 51°13.662 2°55.96 127 0.1 148 -999
2010-05-17 06:19:57 51°13.662 2°55.96 127.1 -999 167 -999
2010-05-17 06:20:02 51°13.662 2°55.96 127.2 -999 342 -999
2010-05-17 06:20:07 51°13.662 2°55.96 127.3 -999 334 -999
2010-05-17 06:20:12 51°13.662 2°55.96 127.4 -999 354 -999
2010-05-17 06:20:17 51°13.662 2°55.96 127.4 -999 9 -999
2010-05-17 06:20:22 51°13.662 2°55.96 127.1 -999 16 -999
2010-05-17 06:20:27 51°13.662 2°55.961 126.9 -999 11 -999
2010-05-17 06:20:32 51°13.662 2°55.961 126.8 -999 130 -999
2010-05-17 06:20:37 51°13.662 2°55.96 126.7 -999 12 -999
2010-05-17 06:20:42 51°13.662 2°55.96 126.8 0.1 10 -999
2010-05-17 06:20:47 51°13.662 2°55.96 127 -999 44 -999
2010-05-17 06:20:52 51°13.662 2°55.96 127.1 -999 199 -999
2010-05-17 06:20:57 51°13.662 2°55.96 127.1 -999 178 -999
2010-05-17 06:21:02 51°13.662 2°55.96 127.1 -999 193 -999
2010-05-17 06:21:07 51°13.662 2°55.96 127.1 -999 354 -999
2010-05-17 06:21:12 51°13.662 2°55.96 127 -999 304 -999
2010-05-17 06:21:17 51°13.662 2°55.96 127 -999 63 -999
2010-05-17 06:21:22 51°13.662 2°55.961 127.1 0.1 41 -999
2010-05-17 06:21:27 51°13.662 2°55.961 127.3 -999 22 -999
2010-05-17 06:21:32 51°13.662 2°55.961 127.6 0.1 209 -999
2010-05-17 06:21:37 51°13.662 2°55.961 127.8 -999 201 -999
2010-05-17 06:21:42 51°13.662 2°55.961 127.8 -999 152 -999
2010-05-17 06:21:47 51°13.661 2°55.961 127.8 0.1 198 -999
2010-05-17 06:21:52 51°13.661 2°55.96 127.4 -999 215 -999
2010-05-17 06:21:57 51°13.661 2°55.96 127.2 -999 318 -999
2010-05-17 06:22:02 51°13.661 2°55.959 127.1 -999 336 -999
2010-05-17 06:22:07 51°13.661 2°55.96 127.1 -999 190 -999
2010-05-17 06:22:12 51°13.661 2°55.96 127.1 -999 158 -999
2010-05-17 06:22:17 51°13.661 2°55.96 127.1 -999 333 -999
2010-05-17 06:22:22 51°13.661 2°55.96 127.1 -999 120 -999
2010-05-17 06:22:27 51°13.661 2°55.96 127.2 -999 72 -999
2010-05-17 06:22:32 51°13.661 2°55.96 127.3 -999 106 -999
2010-05-17 06:22:37 51°13.661 2°55.96 127.4 -999 144 -999
2010-05-17 06:22:42 51°13.661 2°55.96 127.5 -999 140 -999
2010-05-17 06:22:47 51°13.661 2°55.96 127.5 0.1 163 -999
2010-05-17 06:22:52 51°13.661 2°55.96 127.6 -999 108 -999
2010-05-17 06:22:57 51°13.661 2°55.96 127.6 -999 51 -999
2010-05-17 06:23:02 51°13.661 2°55.96 127.6 -999 323 -999
2010-05-17 06:23:07 51°13.661 2°55.96 127.6 -999 256 -999
2010-05-17 06:23:12 51°13.661 2°55.96 127.6 -999 224 -999
2010-05-17 06:23:17 51°13.661 2°55.96 127.7 -999 25 -999
2010-05-17 06:23:22 51°13.661 2°55.96 127.8 -999 44 -999
2010-05-17 06:23:27 51°13.661 2°55.96 127.8 -999 203 -999
2010-05-17 06:23:32 51°13.661 2°55.96 127.8 -999 196 -999
2010-05-17 06:23:37 51°13.661 2°55.96 127.6 -999 12 -999
2010-05-17 06:23:42 51°13.661 2°55.96 127.5 -999 313 -999
2010-05-17 06:23:47 51°13.661 2°55.96 127.4 0.1 297 -999
2010-05-17 06:23:52 51°13.661 2°55.96 127.3 0.1 309 -999
2010-05-17 06:23:57 51°13.662 2°55.96 127 0.1 329 -999
2010-05-17 06:24:02 51°13.662 2°55.96 126.4 -999 215 -999
2010-05-17 06:24:07 51°13.662 2°55.96 126 -999 184 -999
2010-05-17 06:24:12 51°13.662 2°55.96 125.7 -999 172 -999
2010-05-17 06:24:17 51°13.662 2°55.96 125.7 -999 183 -999
2010-05-17 06:24:22 51°13.662 2°55.96 125.6 -999 153 -999
2010-05-17 06:24:27 51°13.662 2°55.96 125.6 -999 89 -999
2010-05-17 06:24:32 51°13.662 2°55.96 126 0.1 148 -999
2010-05-17 06:24:37 51°13.662 2°55.96 126.5 0.1 110 -999
2010-05-17 06:24:42 51°13.662 2°55.96 127.2 0.1 185 -999
2010-05-17 06:24:47 51°13.662 2°55.96 127.8 -999 117 -999
2010-05-17 06:24:52 51°13.662 2°55.96 128 -999 37 -999
2010-05-17 06:24:57 51°13.662 2°55.961 128.1 0.1 41 -999
2010-05-17 06:25:02 51°13.662 2°55.96 128.1 0.1 248 -999
2010-05-17 06:25:07 51°13.662 2°55.96 127.8 0.1 351 -999
2010-05-17 06:25:12 51°13.662 2°55.96 127.2 0.1 304 -999
2010-05-17 06:25:17 51°13.662 2°55.96 126.7 0.1 328 -999
2010-05-17 06:25:22 51°13.662 2°55.96 126.2 -999 202 -999
2010-05-17 06:25:27 51°13.662 2°55.96 125.9 -999 161 -999
2010-05-17 06:25:32 51°13.662 2°55.96 125.8 0.1 117 -999
2010-05-17 06:25:37 51°13.662 2°55.96 125.8 0.1 136 -999
2010-05-17 06:25:42 51°13.662 2°55.96 126.2 0.1 96 -999
2010-05-17 06:25:47 51°13.662 2°55.96 126.8 -999 221 -999
2010-05-17 06:25:52 51°13.662 2°55.96 127.3 -999 38 -999
2010-05-17 06:25:57 51°13.662 2°55.96 127.6 -999 298 -999
2010-05-17 06:26:02 51°13.662 2°55.96 127.7 0.1 32 -999
2010-05-17 06:26:07 51°13.662 2°55.961 127.8 0.1 202 -999
2010-05-17 06:26:12 51°13.662 2°55.96 127.8 -999 184 -999
2010-05-17 06:26:17 51°13.662 2°55.961 127.8 -999 96 -999
2010-05-17 06:26:22 51°13.662 2°55.961 127.8 -999 81 -999
2010-05-17 06:26:27 51°13.662 2°55.961 127.8 -999 50 -999
2010-05-17 06:26:32 51°13.662 2°55.961 127.8 -999 229 -999
2010-05-17 06:26:37 51°13.662 2°55.961 127.8 -999 315 -999
2010-05-17 06:26:42 51°13.662 2°55.961 127.8 -999 4 -999
2010-05-17 06:26:47 51°13.662 2°55.961 127.8 -999 250 -999
2010-05-17 06:26:52 51°13.662 2°55.961 127.6 -999 172 -999
2010-05-17 06:26:57 51°13.662 2°55.961 127.4 0.1 106 -999
2010-05-17 06:27:02 51°13.662 2°55.961 127.2 -999 170 -999
2010-05-17 06:27:07 51°13.662 2°55.961 127.2 0.1 306 -999
2010-05-17 06:27:12 51°13.662 2°55.961 127.2 0.1 272 -999
2010-05-17 06:27:17 51°13.662 2°55.961 127.2 0.1 290 -999
2010-05-17 06:27:22 51°13.662 2°55.961 127.1 0.1 330 -999
2010-05-17 06:27:27 51°13.662 2°55.961 126.7 0.1 291 -999
2010-05-17 06:27:32 51°13.662 2°55.961 126.4 -999 320 -999
2010-05-17 06:27:37 51°13.662 2°55.96 126.2 -999 232 -999
2010-05-17 06:27:42 51°13.662 2°55.96 125.9 -999 216 -999
2010-05-17 06:27:47 51°13.662 2°55.96 125.8 0.1 208 5.8
2010-05-17 06:27:52 51°13.662 2°55.96 125.7 0.1 197 5.8
2010-05-17 06:27:57 51°13.662 2°55.961 125.7 -999 144 5.9
2010-05-17 06:28:01 51°13.662 2°55.961 125.6 -999 193 5.8
2010-05-17 06:28:06 51°13.662 2°55.961 125.6 -999 207 5.9
2010-05-17 06:28:11 51°13.662 2°55.961 125.6 -999 216 5.8
2010-05-17 06:28:16 51°13.662 2°55.961 125.6 -999 144 5.8
2010-05-17 06:28:21 51°13.662 2°55.961 125.9 -999 101 5.8
2010-05-17 06:28:25 51°13.662 2°55.961 126.2 0.1 93 5.8
2010-05-17 06:28:30 51°13.662 2°55.961 126.3 -999 191 5.9
2010-05-17 06:28:35 51°13.662 2°55.961 126.4 -999 283 5.8
2010-05-17 06:28:40 51°13.662 2°55.961 126.8 -999 357 5.8
2010-05-17 06:28:45 51°13.661 2°55.961 127.1 -999 320 5.8
2010-05-17 06:28:50 51°13.661 2°55.961 127.2 0.1 2 5.8
2010-05-17 06:28:55 51°13.661 2°55.96 127.2 0.1 326 5.8
2010-05-17 06:29:00 51°13.661 2°55.96 127.1 -999 326 5.8
2010-05-17 06:29:04 51°13.662 2°55.96 126.9 -999 282 5.8
2010-05-17 06:29:09 51°13.662 2°55.96 126.7 -999 297 5.8
2010-05-17 06:29:14 51°13.662 2°55.96 126.5 -999 315 5.8
2010-05-17 06:29:19 51°13.662 2°55.96 126.3 -999 278 5.8
2010-05-17 06:29:24 51°13.662 2°55.96 125.8 -999 345 5.8
2010-05-17 06:29:29 51°13.662 2°55.96 125.6 -999 232 5.8
2010-05-17 06:29:34 51°13.662 2°55.96 125.2 -999 253 5.8
2010-05-17 06:29:39 51°13.662 2°55.96 124.9 -999 81 5.8
2010-05-17 06:29:44 51°13.662 2°55.96 124.7 -999 234 5.7
2010-05-17 06:29:49 51°13.662 2°55.96 124.6 -999 115 5.8
2010-05-17 06:29:53 51°13.662 2°55.96 124.6 -999 130 5.8
2010-05-17 06:29:58 51°13.662 2°55.96 124.7 -999 124 5.8
2010-05-17 06:30:03 51°13.662 2°55.961 124.9 -999 110 5.8
2010-05-17 06:30:08 51°13.662 2°55.961 125.3 -999 145 5.7
2010-05-17 06:30:13 51°13.662 2°55.961 125.6 -999 11 5.8
2010-05-17 06:30:18 51°13.662 2°55.961 125.9 -999 230 5.8
2010-05-17 06:30:23 51°13.662 2°55.961 126.1 -999 47 5.8
2010-05-17 06:30:28 51°13.662 2°55.961 126.3 -999 254 5.8
2010-05-17 06:30:33 51°13.662 2°55.961 126.3 -999 303 5.8
2010-05-17 06:30:37 51°13.662 2°55.961 126.3 -999 334 5.7
2010-05-17 06:30:43 51°13.662 2°55.961 126.3 -999 157 5.7
2010-05-17 06:30:48 51°13.662 2°55.961 126.3 -999 129 5.8
2010-05-17 06:30:53 51°13.663 2°55.961 126.1 -999 128 5.8
2010-05-17 06:30:57 51°13.663 2°55.961 126 -999 135 5.7
2010-05-17 06:31:03 51°13.662 2°55.961 125.9 -999 190 5.8
2010-05-17 06:31:08 51°13.662 2°55.961 125.8 -999 256 5.8
2010-05-17 06:31:13 51°13.662 2°55.961 125.8 -999 246 5.8
2010-05-17 06:31:17 51°13.662 2°55.961 125.8 -999 353 5.7
2010-05-17 06:31:23 51°13.662 2°55.961 125.8 -999 210 5.8
2010-05-17 06:31:28 51°13.662 2°55.96 125.7 -999 341 5.8
2010-05-17 06:31:33 51°13.662 2°55.96 125.5 -999 295 5.8
2010-05-17 06:31:37 51°13.662 2°55.96 125.3 -999 1 5.8
2010-05-17 06:31:43 51°13.662 2°55.96 125 -999 251 5.7
2010-05-17 06:31:48 51°13.661 2°55.96 124.8 -999 9 5.8
2010-05-17 06:31:53 51°13.662 2°55.96 124.8 -999 169 5.7
2010-05-17 06:31:58 51°13.662 2°55.96 124.8 -999 24 5.7
2010-05-17 06:32:03 51°13.663 2°55.96 124.7 -999 94 5.8
2010-05-17 06:32:08 51°13.663 2°55.96 124.7 -999 181 5.8
2010-05-17 06:32:13 51°13.662 2°55.96 124.7 -999 127 5.7
2010-05-17 06:32:18 51°13.662 2°55.96 124.7 -999 172 5.7
2010-05-17 06:32:23 51°13.662 2°55.96 124.8 -999 108 5.7
2010-05-17 06:32:28 51°13.662 2°55.96 124.8 -999 208 5.7
2010-05-17 06:32:33 51°13.662 2°55.96 124.8 -999 290 5.7
2010-05-17 06:32:38 51°13.662 2°55.96 124.9 -999 224 5.7
2010-05-17 06:32:43 51°13.662 2°55.96 124.9 -999 72 5.7
2010-05-17 06:32:48 51°13.662 2°55.96 124.9 -999 109 5.7
2010-05-17 06:32:53 51°13.663 2°55.96 124.9 -999 103 5.7
2010-05-17 06:32:59 51°13.663 2°55.96 125 -999 149 5.7
2010-05-17 06:33:04 51°13.663 2°55.961 125.1 -999 100 5.7
2010-05-17 06:33:08 51°13.663 2°55.961 125.3 0.1 117 5.7
2010-05-17 06:33:14 51°13.663 2°55.961 125.6 -999 117 5.7
2010-05-17 06:33:18 51°13.662 2°55.961 125.8 -999 138 5.8
2010-05-17 06:33:24 51°13.662 2°55.961 126.2 0.1 133 5.8
2010-05-17 06:33:28 51°13.662 2°55.961 126.6 -999 133 5.8
2010-05-17 06:33:34 51°13.662 2°55.961 127 -999 271 5.8
2010-05-17 06:33:38 51°13.662 2°55.961 127.3 -999 228 5.7
2010-05-17 06:33:44 51°13.662 2°55.961 127.6 -999 128 5.7
2010-05-17 06:33:48 51°13.662 2°55.961 127.8 -999 102 5.8
2010-05-17 06:33:54 51°13.662 2°55.961 127.8 -999 64 5.7
2010-05-17 06:33:58 51°13.662 2°55.961 127.8 -999 113 5.7
2010-05-17 06:34:04 51°13.662 2°55.961 127.6 -999 207 5.7
2010-05-17 06:34:08 51°13.662 2°55.961 127.5 -999 227 5.7
2010-05-17 06:34:14 51°13.662 2°55.961 127.5 -999 29 5.7
2010-05-17 06:34:18 51°13.662 2°55.961 127.4 -999 248 5.8
2010-05-17 06:34:24 51°13.662 2°55.961 127.4 -999 193 5.7
2010-05-17 06:34:28 51°13.662 2°55.961 127.6 -999 200 5.7
2010-05-17 06:34:34 51°13.662 2°55.961 127.7 -999 57 5.7
2010-05-17 06:34:38 51°13.662 2°55.961 127.8 -999 234 5.7
2010-05-17 06:34:44 51°13.662 2°55.961 127.8 -999 176 5.7
2010-05-17 06:34:48 51°13.662 2°55.961 127.8 -999 56 5.7
2010-05-17 06:34:54 51°13.662 2°55.961 127.6 -999 81 5.7
2010-05-17 06:34:58 51°13.662 2°55.961 127.3 -999 86 5.7
2010-05-17 06:35:04 51°13.662 2°55.961 127.2 -999 286 5.7
2010-05-17 06:35:09 51°13.662 2°55.961 127.1 -999 12 5.7
2010-05-17 06:35:14 51°13.663 2°55.961 127.1 -999 10 5.7
2010-05-17 06:35:18 51°13.663 2°55.961 127.1 -999 314 5.7
2010-05-17 06:35:24 51°13.663 2°55.961 127.1 -999 349 5.7
2010-05-17 06:35:29 51°13.663 2°55.961 127.1 -999 240 5.7
2010-05-17 06:35:34 51°13.663 2°55.961 127.3 -999 227 5.7
2010-05-17 06:35:38 51°13.663 2°55.961 127.7 -999 222 5.7
2010-05-17 06:35:44 51°13.663 2°55.96 127.9 -999 259 5.7
2010-05-17 06:35:48 51°13.663 2°55.96 128.4 0.1 220 5.8
2010-05-17 06:35:54 51°13.663 2°55.96 128.8 -999 235 5.7
2010-05-17 06:35:58 51°13.663 2°55.96 129 -999 27 5.7
2010-05-17 06:36:04 51°13.663 2°55.96 129.1 -999 63 5.7
2010-05-17 06:36:08 51°13.663 2°55.96 129.1 -999 59 5.8
2010-05-17 06:36:14 51°13.663 2°55.96 128.9 -999 213 5.8
2010-05-17 06:36:18 51°13.663 2°55.96 128.8 -999 212 5.8
2010-05-17 06:36:24 51°13.663 2°55.96 128.8 -999 232 5.8
2010-05-17 06:36:28 51°13.663 2°55.96 128.8 -999 305 5.8
2010-05-17 06:36:34 51°13.663 2°55.96 128.8 -999 155 5.7
2010-05-17 06:36:38 51°13.663 2°55.96 128.8 -999 51 5.7
2010-05-17 06:36:44 51°13.663 2°55.96 128.8 -999 21 5.8
2010-05-17 06:36:48 51°13.663 2°55.96 128.8 -999 265 5.8
2010-05-17 06:36:54 51°13.663 2°55.96 128.8 -999 110 5.8
2010-05-17 06:36:58 51°13.663 2°55.96 128.8 -999 296 5.8
2010-05-17 06:37:04 51°13.663 2°55.96 128.8 -999 206 5.7
2010-05-17 06:37:08 51°13.663 2°55.96 128.8 -999 205 5.7
2010-05-17 06:37:14 51°13.663 2°55.96 128.9 0.1 216 5.8
2010-05-17 06:37:18 51°13.663 2°55.96 128.8 -999 229 5.7
2010-05-17 06:37:24 51°13.663 2°55.96 128.8 -999 42 5.8
2010-05-17 06:37:28 51°13.663 2°55.96 128.8 0.1 52 5.8
2010-05-17 06:37:34 51°13.663 2°55.961 128.6 -999 63 5.7
2010-05-17 06:37:38 51°13.663 2°55.961 128 -999 183 5.8
2010-05-17 06:37:44 51°13.663 2°55.961 127 -999 192 5.7
2010-05-17 06:37:48 51°13.663 2°55.961 126.2 -999 178 5.8
2010-05-17 06:37:54 51°13.663 2°55.961 125.3 -999 182 5.7
2010-05-17 06:37:58 51°13.663 2°55.961 124.6 -999 190 5.7
2010-05-17 06:38:04 51°13.663 2°55.961 123.7 -999 189 5.7
2010-05-17 06:38:08 51°13.663 2°55.961 122.9 -999 199 5.8
2010-05-17 06:38:14 51°13.663 2°55.961 122.1 0.1 194 5.7
2010-05-17 06:38:19 51°13.663 2°55.961 121.4 -999 194 5.7
2010-05-17 06:38:24 51°13.663 2°55.961 120.7 -999 214 5.7
2010-05-17 06:38:29 51°13.663 2°55.961 120 0.1 202 5.7
2010-05-17 06:38:34 51°13.663 2°55.961 119.3 0.1 203 5.8
2010-05-17 06:38:39 51°13.662 2°55.96 118.6 0.1 202 5.7
2010-05-17 06:38:44 51°13.662 2°55.96 117.9 0.1 195 5.8
2010-05-17 06:38:48 51°13.662 2°55.96 117.1 0.1 192 5.8
2010-05-17 06:38:54 51°13.662 2°55.96 116.3 0.1 193 5.8
2010-05-17 06:38:58 51°13.662 2°55.96 115.6 0.1 190 5.8
2010-05-17 06:39:04 51°13.662 2°55.96 114.9 0.1 198 5.8
2010-05-17 06:39:09 51°13.662 2°55.96 114.1 0.1 198 5.8
2010-05-17 06:39:14 51°13.662 2°55.96 113.3 0.1 206 5.8
2010-05-17 06:39:18 51°13.662 2°55.96 112.6 0.1 178 5.8
2010-05-17 06:39:24 51°13.662 2°55.96 111.9 0.1 277 5.8
2010-05-17 06:39:28 51°13.662 2°55.959 111.5 0.3 289 5.8
2010-05-17 06:39:34 51°13.662 2°55.958 111.2 0.5 297 5.8
2010-05-17 06:39:38 51°13.663 2°55.957 111.1 0.8 293 5.8
2010-05-17 06:39:44 51°13.664 2°55.954 111.1 1.1 298 5.8
2010-05-17 06:39:48 51°13.664 2°55.952 111.1 1.4 295 5.8
2010-05-17 06:39:54 51°13.665 2°55.948 111.1 1.6 295 5.9
2010-05-17 06:39:59 51°13.666 2°55.944 111.3 1.8 295 -999
2010-05-17 06:40:05 51°13.668 2°55.94 111.3 2.1 296 -999
2010-05-17 06:40:10 51°13.669 2°55.935 111.1 2.2 295 -999
2010-05-17 06:40:16 51°13.671 2°55.929 110.4 2.5 295 -999
2010-05-17 06:40:22 51°13.673 2°55.922 109.7 2.6 293 -999
2010-05-17 06:40:27 51°13.674 2°55.916 109.1 2.9 291 -999
2010-05-17 06:40:32 51°13.676 2°55.91 108.2 3.1 290 -999
2010-05-17 06:40:38 51°13.677 2°55.902 106.7 3.2 288 -999
2010-05-17 06:40:42 51°13.679 2°55.896 105.5 3.4 287 -999
2010-05-17 06:40:48 51°13.68 2°55.887 104.6 3.5 285 -999
2010-05-17 06:40:52 51°13.681 2°55.881 103.8 3.6 285 -999
2010-05-17 06:40:58 51°13.683 2°55.871 103.1 3.8 284 -999
2010-05-17 06:41:02 51°13.683 2°55.864 102.7 3.9 283 -999
2010-05-17 06:41:08 51°13.685 2°55.854 102.4 4 282 -999
2010-05-17 06:41:13 51°13.686 2°55.846 101.7 4 283 -999
2010-05-17 06:41:18 51°13.687 2°55.837 101.2 3.9 282 -999
2010-05-17 06:41:22 51°13.688 2°55.831 100.7 3.8 282 -999
2010-05-17 06:41:28 51°13.689 2°55.821 100.1 3.7 282 -999
2010-05-17 06:41:33 51°13.69 2°55.813 99.6 3.7 281 -999
2010-05-17 06:41:38 51°13.691 2°55.805 99.1 3.8 281 -999
2010-05-17 06:41:42 51°13.692 2°55.799 98.7 3.6 281 -999
2010-05-17 06:41:48 51°13.693 2°55.79 98.4 3.5 281 -999
2010-05-17 06:41:53 51°13.694 2°55.782 98 3.4 281 -999
2010-05-17 06:41:56 51°13.695 2°55.778 97.6 3.3 282 11.8
2010-05-17 06:42:02 51°13.696 2°55.77 97.3 3.2 282 12
2010-05-17 06:42:06 51°13.696 2°55.765 97 2.8 285 4.5
2010-05-17 06:42:12 51°13.697 2°55.761 96.6 1.9 284 12
2010-05-17 06:42:17 51°13.698 2°55.759 95 1.1 296 12
2010-05-17 06:42:22 51°13.698 2°55.758 90.6 0.6 319 12.1
2010-05-17 06:42:26 51°13.699 2°55.758 84.6 0.5 348 12
2010-05-17 06:42:31 51°13.7 2°55.759 78.5 0.6 21 12.1
2010-05-17 06:42:36 51°13.701 2°55.76 72.4 0.8 40 12
2010-05-17 06:42:40 51°13.701 2°55.761 66.2 0.8 29 12.1
2010-05-17 06:42:45 51°13.702 2°55.762 61.5 0.6 30 12.1
2010-05-17 06:42:50 51°13.703 2°55.762 56.6 0.5 19 12.1
2010-05-17 06:42:54 51°13.703 2°55.762 53.3 0.3 350 12
2010-05-17 06:42:59 51°13.703 2°55.761 50.4 0.3 278 12.4
2010-05-17 06:43:04 51°13.703 2°55.76 47.8 0.5 246 12.1
2010-05-17 06:43:09 51°13.702 2°55.758 45.7 0.8 235 12
2010-05-17 06:43:14 51°13.701 2°55.757 43.9 1.1 232 12.1
2010-05-17 06:43:19 51°13.699 2°55.754 42.5 1.4 228 12
2010-05-17 06:43:24 51°13.698 2°55.752 41.1 1.6 226 12.1
2010-05-17 06:43:29 51°13.696 2°55.749 39.7 1.7 224 -999
2010-05-17 06:43:34 51°13.695 2°55.746 37.9 1.7 223 -999
2010-05-17 06:43:41 51°13.692 2°55.743 36.6 1.6 222 -999
2010-05-17 06:43:46 51°13.691 2°55.741 35.1 1.3 224 -999
2010-05-17 06:43:52 51°13.691 2°55.74 33.8 0.5 228 -999
2010-05-17 06:43:57 51°13.691 2°55.74 30.6 0.4 349 -999
2010-05-17 06:44:02 51°13.692 2°55.74 25.5 0.9 8 -999
2010-05-17 06:44:08 51°13.695 2°55.74 19.2 1.3 5 -999
2010-05-17 06:44:13 51°13.697 2°55.74 11 1.6 1 -999
2010-05-17 06:44:18 51°13.699 2°55.74 4.1 1.9 355 -999
2010-05-17 06:44:22 51°13.702 2°55.739 358.7 2.1 352 4.6
2010-05-17 06:44:27 51°13.705 2°55.737 353.7 2.3 346 -999
2010-05-17 06:44:32 51°13.708 2°55.735 348.7 2.6 338 4.6
2010-05-17 06:44:37 51°13.712 2°55.733 342.3 3 335 12.3
2010-05-17 06:44:42 51°13.716 2°55.728 335.9 3.3 328 12.2
2010-05-17 06:44:46 51°13.719 2°55.724 329.3 3.7 325 12.3
2010-05-17 06:44:51 51°13.724 2°55.719 325.5 4.3 325 12.2
2010-05-17 06:44:56 51°13.73 2°55.712 323.7 4.9 324 11.9
2010-05-17 06:45:01 51°13.737 2°55.706 325.9 5.5 329 11.8
2010-05-17 06:45:06 51°13.744 2°55.698 327.7 6 327 11.7
2010-05-17 06:45:10 51°13.75 2°55.692 329.4 6.5 330 11.2
2010-05-17 06:45:14 51°13.757 2°55.686 331.1 7 329 11
2010-05-17 06:45:20 51°13.768 2°55.676 331.8 7.5 331 10.9
2010-05-17 06:45:25 51°13.777 2°55.668 332.5 7.9 331 10.8
2010-05-17 06:45:29 51°13.786 2°55.661 333.3 8.2 332 10.8
2010-05-17 06:45:34 51°13.796 2°55.652 334 8.5 333 10.7
2010-05-17 06:45:39 51°13.807 2°55.644 335.4 8.8 334 10.7
2010-05-17 06:45:44 51°13.818 2°55.636 336.7 9 336 10.7
2010-05-17 06:45:49 51°13.83 2°55.627 337.5 9.2 336 10.6
2010-05-17 06:45:54 51°13.842 2°55.619 337.6 9.3 336 10.6
2010-05-17 06:45:58 51°13.852 2°55.612 337.6 9.5 336 10.5
2010-05-17 06:46:04 51°13.866 2°55.602 337.6 9.6 337 10.5
2010-05-17 06:46:09 51°13.879 2°55.594 338.3 9.7 338 10.2
2010-05-17 06:46:14 51°13.892 2°55.586 339.8 9.8 340 10.3
2010-05-17 06:46:19 51°13.905 2°55.579 340.9 9.9 340 10.6
2010-05-17 06:46:24 51°13.918 2°55.572 341.2 10 340 10.6
2010-05-17 06:46:29 51°13.932 2°55.565 341.2 10.1 340 10.5
2010-05-17 06:46:34 51°13.945 2°55.557 341.7 10.1 340 10.5
2010-05-17 06:46:39 51°13.958 2°55.55 341.9 10.1 340 10.4
2010-05-17 06:46:44 51°13.971 2°55.542 341.9 10.2 340 -999
2010-05-17 06:46:50 51°13.987 2°55.533 342.4 10.2 341 10.5
2010-05-17 06:46:54 51°13.998 2°55.527 342.8 10.2 341 10.7
2010-05-17 06:46:59 51°14.011 2°55.52 343.2 10.2 342 10.4
2010-05-17 06:47:04 51°14.024 2°55.513 343.3 10.2 341 10.5
2010-05-17 06:47:10 51°14.04 2°55.503 342.7 10.1 340 10.4
2010-05-17 06:47:14 51°14.05 2°55.496 341.2 10.1 338 10.4
2010-05-17 06:47:19 51°14.063 2°55.487 339 10.1 335 10.4
2010-05-17 06:47:24 51°14.076 2°55.477 337.6 10.1 334 10.5
2010-05-17 06:47:29 51°14.088 2°55.467 336.1 10.2 333 10.5
2010-05-17 06:47:34 51°14.101 2°55.456 334.4 10.2 332 10.5
2010-05-17 06:47:38 51°14.11 2°55.447 333.2 10.3 330 10.5
2010-05-17 06:47:44 51°14.126 2°55.434 332.3 10.3 330 10.4
2010-05-17 06:47:49 51°14.138 2°55.422 331.8 10.4 330 10.4
2010-05-17 06:47:54 51°14.151 2°55.411 331.4 10.4 330 10.4
2010-05-17 06:47:59 51°14.163 2°55.399 331.1 10.4 329 10.4
2010-05-17 06:48:04 51°14.175 2°55.386 330.5 10.5 328 10.4
2010-05-17 06:48:09 51°14.188 2°55.374 330.3 10.6 329 10.4
2010-05-17 06:48:14 51°14.201 2°55.362 330.2 10.7 328 10.3
2010-05-17 06:48:19 51°14.214 2°55.35 330 10.8 328 10.4
2010-05-17 06:48:24 51°14.226 2°55.337 329.7 10.8 328 10.3
2010-05-17 06:48:29 51°14.239 2°55.324 329.6 10.9 328 10.3
2010-05-17 06:48:34 51°14.252 2°55.311 329.6 11 327 10.2
2010-05-17 06:48:39 51°14.265 2°55.297 329.2 11.1 327 10.2
2010-05-17 06:48:44 51°14.278 2°55.284 329.1 11.1 327 10.1
2010-05-17 06:48:49 51°14.291 2°55.27 329 11.2 327 10.1
2010-05-17 06:48:54 51°14.304 2°55.257 328.9 11.3 327 10.1
2010-05-17 06:48:59 51°14.317 2°55.243 328.9 11.3 327 10.2
2010-05-17 06:49:04 51°14.331 2°55.23 329.5 11.4 329 10
2010-05-17 06:49:09 51°14.345 2°55.217 330.8 11.5 330 10.3
2010-05-17 06:49:14 51°14.359 2°55.205 332.3 11.6 332 10.1
2010-05-17 06:49:19 51°14.373 2°55.194 333.7 11.6 333 10.3
2010-05-17 06:49:24 51°14.388 2°55.183 335.5 11.7 335 10.2
2010-05-17 06:49:28 51°14.4 2°55.174 336.9 11.7 335 10.3
2010-05-17 06:49:34 51°14.417 2°55.161 336.9 11.7 334 10.3
2010-05-17 06:49:39 51°14.431 2°55.148 335.8 11.7 332 10.3
2010-05-17 06:49:44 51°14.445 2°55.135 333.7 11.8 329 10.3
2010-05-17 06:49:49 51°14.459 2°55.121 331.4 11.8 328 9.7
2010-05-17 06:49:54 51°14.473 2°55.106 329.7 11.9 327 9.8
2010-05-17 06:49:59 51°14.487 2°55.092 328.9 12 326 10.2
2010-05-17 06:50:04 51°14.501 2°55.077 328.2 12.1 326 9.9
2010-05-17 06:50:09 51°14.515 2°55.061 327.4 12.3 325 10.2
2010-05-17 06:50:14 51°14.529 2°55.045 326.9 12.4 325 10.6
2010-05-17 06:50:18 51°14.54 2°55.032 326.5 12.6 321 10.6
2010-05-17 06:50:24 51°14.555 2°55.009 325.7 12.8 316 11
2010-05-17 06:50:28 51°14.565 2°54.992 322.5 13 312 11
2010-05-17 06:50:34 51°14.58 2°54.967 320.8 13 315 11.2
2010-05-17 06:50:39 51°14.594 2°54.948 322.9 13 319 11
2010-05-17 06:50:44 51°14.609 2°54.933 327.8 12.9 326 10.9
2010-05-17 06:50:49 51°14.624 2°54.917 332.5 12.9 328 11
2010-05-17 06:50:54 51°14.64 2°54.903 336.1 12.9 330 10.8
2010-05-17 06:50:58 51°14.652 2°54.891 336.9 13 328 10.9
2010-05-17 06:51:04 51°14.67 2°54.872 335.9 13.1 327 11.1
2010-05-17 06:51:08 51°14.682 2°54.859 334.4 13.3 326 11.2
2010-05-17 06:51:14 51°14.701 2°54.839 333.3 13.3 326 11
2010-05-17 06:51:18 51°14.713 2°54.827 334 13.3 328 11.1
2010-05-17 06:51:24 51°14.732 2°54.808 333.8 13.2 328 11.2
2010-05-17 06:51:28 51°14.744 2°54.796 334.8 13.2 329 11.1
2010-05-17 06:51:34 51°14.763 2°54.777 334.6 13.3 327 11
2010-05-17 06:51:38 51°14.775 2°54.764 333.4 13.2 328 11
2010-05-17 06:51:44 51°14.794 2°54.746 333.7 13.2 328 11
2010-05-17 06:51:48 51°14.806 2°54.733 333.5 13.2 326 11.1
2010-05-17 06:51:54 51°14.824 2°54.713 331.8 13.2 325 11.1
2010-05-17 06:51:58 51°14.836 2°54.7 330.8 13.2 325 11.1
2010-05-17 06:52:04 51°14.854 2°54.68 331 13.2 326 11
2010-05-17 06:52:08 51°14.866 2°54.666 330.6 13.3 325 11
2010-05-17 06:52:14 51°14.885 2°54.647 330.5 13.2 327 11.1
2010-05-17 06:52:18 51°14.897 2°54.634 329.8 13.2 325 11.1
2010-05-17 06:52:24 51°14.916 2°54.617 331.5 13.1 331 11.2
2010-05-17 06:52:28 51°14.928 2°54.606 334.5 13.1 332 11.2
2010-05-17 06:52:34 51°14.948 2°54.59 336.7 13 333 9.3
2010-05-17 06:52:38 51°14.961 2°54.58 338.1 12.8 334 9.3
2010-05-17 06:52:44 51°14.979 2°54.565 338.5 12.7 333 9.2
2010-05-17 06:52:49 51°14.995 2°54.553 338.4 12.7 334 9.2
2010-05-17 06:52:54 51°15.012 2°54.541 338.8 12.8 335 9
2010-05-17 06:52:58 51°15.024 2°54.531 338.9 12.8 334 8.8
2010-05-17 06:53:04 51°15.044 2°54.519 340.6 12.8 340 8.5
2010-05-17 06:53:08 51°15.057 2°54.511 342.7 12.8 338 8.4
2010-05-17 06:53:14 51°15.078 2°54.501 344.2 12.7 343 8.2
2010-05-17 06:53:18 51°15.091 2°54.495 347.1 12.6 345 7.9
2010-05-17 06:53:24 51°15.111 2°54.488 348.7 12.5 348 7.7
2010-05-17 06:53:29 51°15.128 2°54.483 351.8 12.5 349 7.9
2010-05-17 06:53:34 51°15.145 2°54.479 354.1 12.5 351 7.9
2010-05-17 06:53:38 51°15.159 2°54.476 355.6 12.5 353 8.1
2010-05-17 06:53:44 51°15.18 2°54.472 357.2 12.5 354 8
2010-05-17 06:53:48 51°15.194 2°54.471 359 12.6 355 7.9
2010-05-17 06:53:54 51°15.215 2°54.469 -999 12.6 356 8
2010-05-17 06:53:58 51°15.229 2°54.468 0.8 12.7 358 8.2
2010-05-17 06:54:04 51°15.25 2°54.466 1.9 12.7 357 8.1
2010-05-17 06:54:08 51°15.264 2°54.466 2.6 12.8 359 8.2
2010-05-17 06:54:14 51°15.286 2°54.465 2.9 12.8 359 8.3
2010-05-17 06:54:18 51°15.3 2°54.464 3.5 12.8 358 8.1
2010-05-17 06:54:24 51°15.321 2°54.463 2.8 12.9 357 8.3
2010-05-17 06:54:28 51°15.335 2°54.46 0.9 12.9 354 8.2
2010-05-17 06:54:34 51°15.357 2°54.457 359.9 13 356 8.3
2010-05-17 06:54:38 51°15.371 2°54.454 358.5 13 353 8.4
2010-05-17 06:54:44 51°15.393 2°54.45 357.9 13.1 353 8.5
2010-05-17 06:54:48 51°15.407 2°54.446 356.9 13.1 352 8.5
2010-05-17 06:54:54 51°15.429 2°54.441 356.5 13.1 353 8.5
2010-05-17 06:54:58 51°15.443 2°54.438 355.8 13.2 351 8.6
2010-05-17 06:55:04 51°15.465 2°54.433 355.5 13.2 352 8.7
2010-05-17 06:55:08 51°15.479 2°54.429 355.5 13.3 352 9
2010-05-17 06:55:14 51°15.501 2°54.424 355.5 13.3 352 9.1
2010-05-17 06:55:18 51°15.516 2°54.421 355.5 13.3 352 9
2010-05-17 06:55:24 51°15.538 2°54.416 356 13.4 352 9.1
2010-05-17 06:55:28 51°15.553 2°54.413 355.9 13.3 352 9.1
2010-05-17 06:55:34 51°15.575 2°54.408 355.9 13.3 352 9
2010-05-17 06:55:38 51°15.589 2°54.404 355.8 13.3 351 9.1
2010-05-17 06:55:44 51°15.611 2°54.399 355.4 13.3 352 9.2
2010-05-17 06:55:48 51°15.626 2°54.395 355.1 13.3 351 9.2
2010-05-17 06:55:54 51°15.648 2°54.39 355 13.4 351 9.4
2010-05-17 06:55:58 51°15.663 2°54.386 354.6 13.4 350 9.3
2010-05-17 06:56:04 51°15.684 2°54.38 354.9 13.3 350 9.4
2010-05-17 06:56:08 51°15.699 2°54.375 355 12.9 350 9.4
2010-05-17 06:56:14 51°15.719 2°54.37 355 12.6 350 9.5
2010-05-17 06:56:18 51°15.733 2°54.365 354.8 12.5 349 9.5
2010-05-17 06:56:24 51°15.753 2°54.36 355 12.2 350 9.6
2010-05-17 06:56:29 51°15.769 2°54.355 355.2 11.8 350 9.6
2010-05-17 06:56:34 51°15.785 2°54.35 355.3 11.5 349 9.8
2010-05-17 06:56:38 51°15.797 2°54.347 355.1 11.1 349 9.8
2010-05-17 06:56:44 51°15.814 2°54.342 355.1 10.8 350 10.1
2010-05-17 06:56:49 51°15.829 2°54.337 355 10.6 349 10.1
2010-05-17 06:56:54 51°15.843 2°54.334 355.8 10.4 351 10.1
2010-05-17 06:56:59 51°15.857 2°54.331 357.2 10.1 352 10.1
2010-05-17 06:57:04 51°15.87 2°54.328 358.6 10 354 10.2
2010-05-17 06:57:08 51°15.881 2°54.326 359.3 9.8 353 10.1
2010-05-17 06:57:14 51°15.897 2°54.324 359.8 9.7 354 10.1
2010-05-17 06:57:18 51°15.908 2°54.322 0.7 9.5 354 10.2
2010-05-17 06:57:24 51°15.923 2°54.32 0.9 9.1 355 10.2
2010-05-17 06:57:29 51°15.935 2°54.318 1.4 8.8 354 10.2
2010-05-17 06:57:34 51°15.947 2°54.317 1.5 8.6 354 10.2
2010-05-17 06:57:38 51°15.956 2°54.315 1.4 8.3 355 10.2
2010-05-17 06:57:44 51°15.969 2°54.313 1.2 8.1 353 10.4
2010-05-17 06:57:48 51°15.978 2°54.311 0.8 7.8 353 10.4
2010-05-17 06:57:54 51°15.991 2°54.309 0.7 7.7 353 10.6
2010-05-17 06:57:58 51°15.999 2°54.307 0.7 7.5 353 10.5
2010-05-17 06:58:04 51°16.011 2°54.305 0.7 7.4 353 10.5
2010-05-17 06:58:08 51°16.019 2°54.303 0.6 7.2 353 10.3
2010-05-17 06:58:14 51°16.031 2°54.3 0.6 7.2 353 10.3
2010-05-17 06:58:18 51°16.039 2°54.299 0.6 7 352 10.4
2010-05-17 06:58:24 51°16.05 2°54.297 0.4 6.9 353 10.5
2010-05-17 06:58:28 51°16.058 2°54.295 0.5 6.8 352 10.4
2010-05-17 06:58:34 51°16.069 2°54.293 0.6 6.8 352 10.6
2010-05-17 06:58:38 51°16.077 2°54.291 0.7 6.7 352 10.5
2010-05-17 06:58:44 51°16.088 2°54.289 0.7 6.7 353 10.5
2010-05-17 06:58:48 51°16.095 2°54.288 0.9 6.6 352 10.5
2010-05-17 06:58:54 51°16.106 2°54.285 1 6.6 353 10.6
2010-05-17 06:58:58 51°16.113 2°54.284 1.1 6.5 352 10.6
2010-05-17 06:59:04 51°16.124 2°54.282 1.1 6.5 353 10.7
2010-05-17 06:59:08 51°16.131 2°54.28 1.2 6.5 353 10.8
2010-05-17 06:59:14 51°16.141 2°54.278 1 6.4 353 10.7
2010-05-17 06:59:18 51°16.148 2°54.277 1.1 6.4 353 10.5
2010-05-17 06:59:24 51°16.159 2°54.274 1.1 6.4 353 10.5
2010-05-17 06:59:28 51°16.166 2°54.273 1 6.4 352 10.6
2010-05-17 06:59:33 51°16.174 2°54.271 0.8 6.2 353 10.6
2010-05-17 06:59:38 51°16.183 2°54.269 0.8 6.1 353 10.7
2010-05-17 06:59:43 51°16.191 2°54.268 0.8 5.9 352 10.8
2010-05-17 06:59:48 51°16.199 2°54.266 0.8 5.8 352 10.7
2010-05-17 06:59:54 51°16.208 2°54.264 0.6 5.7 352 10.8
2010-05-17 06:59:58 51°16.214 2°54.262 0.6 5.5 351 10.6
2010-05-17 07:00:03 51°16.221 2°54.26 0.3 5.2 351 10.7
2010-05-17 07:00:08 51°16.228 2°54.258 359.7 5 349 10.8
2010-05-17 07:00:13 51°16.235 2°54.256 359 4.8 348 10.7
2010-05-17 07:00:18 51°16.24 2°54.254 358 4.4 344 10.8
2010-05-17 07:00:24 51°16.247 2°54.251 356.8 4.2 344 10.8
2010-05-17 07:00:28 51°16.251 2°54.248 354.2 3.8 339 10.7
2010-05-17 07:00:33 51°16.256 2°54.245 351.4 3.5 336 10.8
2010-05-17 07:00:38 51°16.26 2°54.242 348.3 3.2 331 10.8
2010-05-17 07:00:44 51°16.264 2°54.237 345.7 2.9 327 10.7
2010-05-17 07:00:48 51°16.266 2°54.235 342.3 2.7 324 10.9
2010-05-17 07:00:54 51°16.269 2°54.231 340.6 2.5 321 10.9
2010-05-17 07:00:58 51°16.271 2°54.228 340.9 2.1 321 11
2010-05-17 07:01:03 51°16.273 2°54.225 342.5 1.9 319 10.9
2010-05-17 07:01:09 51°16.275 2°54.222 344.8 1.6 317 10.9
2010-05-17 07:01:14 51°16.277 2°54.22 347.1 1.5 313 10.9
2010-05-17 07:01:18 51°16.278 2°54.219 349.9 1.4 317 10.9
2010-05-17 07:01:24 51°16.279 2°54.216 352.4 1.3 316 10.8
2010-05-17 07:01:28 51°16.28 2°54.215 354.5 1.2 316 10.9
2010-05-17 07:01:34 51°16.282 2°54.212 356.2 1.2 315 10.8
2010-05-17 07:01:38 51°16.282 2°54.211 358.6 1.1 316 10.8
2010-05-17 07:01:44 51°16.284 2°54.209 0.1 1.1 317 10.8
2010-05-17 07:01:48 51°16.284 2°54.208 2.3 1 315 10.8
2010-05-17 07:01:54 51°16.286 2°54.206 4 1 316 10.9
2010-05-17 07:01:58 51°16.286 2°54.205 5.3 1 314 10.8
2010-05-17 07:02:04 51°16.287 2°54.203 6.4 0.9 319 10.8
2010-05-17 07:02:08 51°16.288 2°54.202 7.3 0.9 318 10.8
2010-05-17 07:02:14 51°16.289 2°54.201 8.1 0.8 321 11
2010-05-17 07:02:18 51°16.29 2°54.2 8.8 0.8 320 11
2010-05-17 07:02:24 51°16.291 2°54.198 9 0.9 317 10.8
2010-05-17 07:02:28 51°16.292 2°54.197 9.4 0.8 318 10.8
2010-05-17 07:02:34 51°16.293 2°54.196 9.5 0.8 316 10.8
2010-05-17 07:02:38 51°16.293 2°54.195 9.5 0.8 319 10.9
2010-05-17 07:02:44 51°16.294 2°54.194 9.3 0.8 319 10.9
2010-05-17 07:02:48 51°16.295 2°54.193 9 0.7 317 10.9
2010-05-17 07:02:54 51°16.296 2°54.191 8.4 0.8 312 10.8
2010-05-17 07:02:58 51°16.296 2°54.19 8.3 0.7 313 10.7
2010-05-17 07:03:04 51°16.297 2°54.189 8 0.8 314 10.8
2010-05-17 07:03:08 51°16.298 2°54.188 7.6 0.7 315 10.9
2010-05-17 07:03:14 51°16.299 2°54.187 7.2 0.7 310 10.9
2010-05-17 07:03:18 51°16.299 2°54.186 6.8 0.7 313 10.9
2010-05-17 07:03:24 51°16.3 2°54.184 6.5 0.7 308 10.8
2010-05-17 07:03:28 51°16.3 2°54.183 6.2 0.7 310 10.9
2010-05-17 07:03:34 51°16.301 2°54.182 5.9 0.7 305 10.9
2010-05-17 07:03:38 51°16.302 2°54.181 5.3 0.7 307 10.8
2010-05-17 07:03:44 51°16.302 2°54.18 5.2 0.7 305 10.9
2010-05-17 07:03:48 51°16.302 2°54.179 4.8 0.7 305 10.9
2010-05-17 07:03:54 51°16.303 2°54.177 4.4 0.7 303 11
2010-05-17 07:03:58 51°16.304 2°54.176 4.2 0.7 299 10.9
2010-05-17 07:04:04 51°16.304 2°54.174 3.7 0.6 304 10.9
2010-05-17 07:04:08 51°16.304 2°54.173 3.5 0.7 300 11
2010-05-17 07:04:14 51°16.305 2°54.172 3.1 0.6 301 10.8
2010-05-17 07:04:18 51°16.305 2°54.171 2.9 0.6 300 10.9
2010-05-17 07:04:24 51°16.306 2°54.17 2.5 0.6 299 11
2010-05-17 07:04:28 51°16.306 2°54.168 2.3 0.6 293 10.8
2010-05-17 07:04:34 51°16.306 2°54.167 2 0.7 294 10.8
2010-05-17 07:04:38 51°16.307 2°54.166 1.7 0.6 296 10.8
2010-05-17 07:04:44 51°16.307 2°54.164 1.5 0.7 291 10.9
2010-05-17 07:04:48 51°16.307 2°54.164 1 0.6 290 10.8
2010-05-17 07:04:54 51°16.308 2°54.162 0.9 0.7 289 10.8
2010-05-17 07:04:58 51°16.308 2°54.161 0.7 0.6 290 10.8
2010-05-17 07:05:04 51°16.308 2°54.159 0.6 0.7 286 10.8
2010-05-17 07:05:08 51°16.309 2°54.158 0.4 0.6 286 10.8
2010-05-17 07:05:14 51°16.309 2°54.157 0.1 0.6 288 11
2010-05-17 07:05:19 51°16.309 2°54.155 359.7 0.7 284 10.7
2010-05-17 07:05:24 51°16.309 2°54.154 359.4 0.6 284 10.8
2010-05-17 07:05:28 51°16.309 2°54.153 359.1 0.6 285 10.9
2010-05-17 07:05:34 51°16.31 2°54.151 358.7 0.7 282 10.8
2010-05-17 07:05:38 51°16.31 2°54.15 358.5 0.6 279 10.8
2010-05-17 07:05:44 51°16.31 2°54.149 358.2 0.7 280 10.8
2010-05-17 07:05:48 51°16.31 2°54.147 357.9 0.6 282 11
2010-05-17 07:05:54 51°16.31 2°54.146 357.5 0.6 278 10.9
2010-05-17 07:05:58 51°16.31 2°54.145 357.2 0.6 277 10.9
2010-05-17 07:06:04 51°16.31 2°54.143 357 0.6 275 10.8
2010-05-17 07:06:08 51°16.311 2°54.142 356.7 0.6 274 10.8
2010-05-17 07:06:14 51°16.311 2°54.14 356.4 0.6 277 10.8
2010-05-17 07:06:18 51°16.311 2°54.139 356.1 0.6 277 10.8
2010-05-17 07:06:24 51°16.311 2°54.137 355.7 0.6 275 10.9
2010-05-17 07:06:28 51°16.311 2°54.136 355.5 0.6 274 11
2010-05-17 07:06:34 51°16.311 2°54.135 355.3 0.6 275 10.8
2010-05-17 07:06:38 51°16.311 2°54.133 355 0.7 274 10.9
2010-05-17 07:06:44 51°16.311 2°54.131 354.8 0.6 273 10.8
2010-05-17 07:06:48 51°16.311 2°54.13 354.5 0.7 269 10.8
2010-05-17 07:06:54 51°16.311 2°54.129 354.3 0.6 270 10.8
2010-05-17 07:06:58 51°16.311 2°54.128 354.3 0.7 269 10.8
2010-05-17 07:07:04 51°16.311 2°54.126 353.9 0.6 273 10.9
2010-05-17 07:07:08 51°16.311 2°54.125 353.7 0.6 269 10.9
2010-05-17 07:07:14 51°16.31 2°54.123 353.6 0.6 266 10.9
2010-05-17 07:07:18 51°16.31 2°54.122 353.6 0.6 267 10.8
2010-05-17 07:07:24 51°16.31 2°54.12 353.2 0.6 265 10.9
2010-05-17 07:07:28 51°16.31 2°54.119 353.2 0.6 266 10.9
2010-05-17 07:07:34 51°16.31 2°54.117 353.2 0.6 265 10.8
2010-05-17 07:07:38 51°16.31 2°54.116 353 0.7 263 10.7
2010-05-17 07:07:44 51°16.31 2°54.114 352.9 0.6 264 10.8
2010-05-17 07:07:48 51°16.31 2°54.113 352.8 0.6 265 10.9
2010-05-17 07:07:54 51°16.31 2°54.112 352.7 0.6 263 10.8
2010-05-17 07:07:58 51°16.31 2°54.111 352.5 0.6 264 10.9
2010-05-17 07:08:04 51°16.309 2°54.109 352.3 0.6 260 11
2010-05-17 07:08:08 51°16.309 2°54.108 352 0.6 261 10.8
2010-05-17 07:08:14 51°16.309 2°54.106 351.8 0.6 261 10.8
2010-05-17 07:08:18 51°16.309 2°54.105 351.7 0.6 259 10.8
2010-05-17 07:08:24 51°16.309 2°54.104 351.5 0.6 257 10.8
2010-05-17 07:08:28 51°16.309 2°54.102 351.4 0.6 259 10.9
2010-05-17 07:08:34 51°16.308 2°54.101 351.1 0.6 258 10.8
2010-05-17 07:08:38 51°16.308 2°54.1 351 0.6 260 10.8
2010-05-17 07:08:44 51°16.308 2°54.098 350.7 0.6 257 10.7
2010-05-17 07:08:48 51°16.308 2°54.097 350.5 0.7 257 10.7
2010-05-17 07:08:54 51°16.308 2°54.096 350.4 0.6 258 10.7
2010-05-17 07:08:58 51°16.308 2°54.095 350.2 0.6 257 10.8
2010-05-17 07:09:04 51°16.307 2°54.093 350 0.6 256 11
2010-05-17 07:09:08 51°16.307 2°54.092 349.9 0.6 256 10.9
2010-05-17 07:09:14 51°16.307 2°54.09 349.7 0.6 255 10.8
2010-05-17 07:09:18 51°16.307 2°54.089 349.6 0.6 254 10.9
2010-05-17 07:09:24 51°16.306 2°54.088 349.5 0.6 255 10.8
2010-05-17 07:09:28 51°16.306 2°54.087 349.5 0.6 256 10.8
2010-05-17 07:09:34 51°16.306 2°54.085 349.3 0.6 255 11
2010-05-17 07:09:38 51°16.306 2°54.084 349.3 0.5 253 10.8
2010-05-17 07:09:44 51°16.306 2°54.083 349.2 0.6 253 10.8
2010-05-17 07:09:48 51°16.305 2°54.082 349.1 0.6 253 11
2010-05-17 07:09:54 51°16.305 2°54.08 349.1 0.6 252 10.7
2010-05-17 07:09:58 51°16.305 2°54.079 349.1 0.6 251 10.8
2010-05-17 07:10:04 51°16.305 2°54.078 349.2 0.6 251 10.8
2010-05-17 07:10:08 51°16.304 2°54.077 349.2 0.5 251 10.8
2010-05-17 07:10:14 51°16.304 2°54.075 349.2 0.6 252 10.8
2010-05-17 07:10:18 51°16.304 2°54.074 349.2 0.6 254 10.9
2010-05-17 07:10:24 51°16.304 2°54.073 349.3 0.6 254 10.9
2010-05-17 07:10:28 51°16.303 2°54.072 349.5 0.5 248 10.9
2010-05-17 07:10:34 51°16.303 2°54.071 349.5 0.6 248 10.8
2010-05-17 07:10:38 51°16.303 2°54.07 349.6 0.5 245 10.8
2010-05-17 07:10:44 51°16.302 2°54.068 349.8 0.6 247 10.8
2010-05-17 07:10:48 51°16.302 2°54.067 349.9 0.5 244 10.7
2010-05-17 07:10:54 51°16.302 2°54.066 350.3 0.6 247 10.6
2010-05-17 07:10:58 51°16.301 2°54.065 350.7 0.5 241 10.8
2010-05-17 07:11:04 51°16.301 2°54.064 351 0.6 241 10.8
2010-05-17 07:11:09 51°16.3 2°54.063 351.3 0.6 240 10.7
2010-05-17 07:11:14 51°16.3 2°54.062 351.6 0.5 242 10.9
2010-05-17 07:11:18 51°16.3 2°54.061 351.8 0.6 241 10.9
2010-05-17 07:11:24 51°16.3 2°54.06 352.1 0.6 245 10.8
2010-05-17 07:11:29 51°16.299 2°54.059 352.4 0.5 243 10.8
2010-05-17 07:11:33 51°16.299 2°54.058 352.7 0.6 242 10.9
2010-05-17 07:11:38 51°16.299 2°54.057 352.8 0.5 238 10.8
2010-05-17 07:11:43 51°16.298 2°54.056 353.2 0.6 242 10.8
2010-05-17 07:11:48 51°16.298 2°54.055 353.4 0.6 242 10.8
2010-05-17 07:11:54 51°16.297 2°54.054 353.7 0.5 233 11
2010-05-17 07:11:58 51°16.297 2°54.053 354.1 0.6 239 10.9
2010-05-17 07:12:03 51°16.296 2°54.052 354.5 0.5 234 10.8
2010-05-17 07:12:08 51°16.296 2°54.051 355 0.6 238 10.8
2010-05-17 07:12:13 51°16.296 2°54.05 355.4 0.5 235 10.8
2010-05-17 07:12:18 51°16.295 2°54.049 355.7 0.5 240 10.9
2010-05-17 07:12:23 51°16.295 2°54.048 355.9 0.5 251 10.9
2010-05-17 07:12:28 51°16.295 2°54.047 355.9 0.5 276 10.8
2010-05-17 07:12:33 51°16.295 2°54.045 355.4 0.6 291 10.8
2010-05-17 07:12:38 51°16.296 2°54.044 354.7 1 315 10.7
2010-05-17 07:12:43 51°16.298 2°54.042 354 1.3 324 10.7
2010-05-17 07:12:48 51°16.3 2°54.041 353.6 1.7 330 10.8
2010-05-17 07:12:53 51°16.302 2°54.039 353 2 333 10.8
2010-05-17 07:12:58 51°16.305 2°54.036 351.7 2.6 334 10.7
2010-05-17 07:13:04 51°16.31 2°54.032 350.3 3.1 333 10.7
2010-05-17 07:13:19 51°16.325 2°54.021 346.2 4.6 334 10.9
2010-05-17 07:13:24 51°16.331 2°54.016 345.5 5.1 335 10.8
2010-05-17 07:13:29 51°16.338 2°54.01 344.7 5.6 334 10.8
2010-05-17 07:13:35 51°16.347 2°54.003 343.4 6.2 333 10.8
2010-05-17 07:13:39 51°16.354 2°53.997 342.3 6.8 333 11
2010-05-17 07:13:44 51°16.363 2°53.99 341.3 7.3 333 10.9
2010-05-17 07:13:44 51°16.363 2°53.99 341.3 7.3 333 10.9
2010-05-17 07:13:59 51°16.393 2°53.964 339.3 8.8 332 10.8
2010-05-17 07:14:04 51°16.404 2°53.954 338.9 9.2 331 10.8
2010-05-17 07:14:09 51°16.416 2°53.944 338.6 9.5 332 10.9
2010-05-17 07:14:13 51°16.425 2°53.935 338.3 9.8 331 10.9
2010-05-17 07:14:19 51°16.44 2°53.923 338.3 10.1 331 11
2010-05-17 07:14:24 51°16.452 2°53.911 338.2 10.3 331 11
2010-05-17 07:14:29 51°16.465 2°53.9 337.9 10.4 330 10.9
2010-05-17 07:14:34 51°16.478 2°53.889 337.6 10.6 330 10.9
2010-05-17 07:14:39 51°16.49 2°53.875 335.1 10.9 326 11
2010-05-17 07:14:44 51°16.503 2°53.862 333.4 11 327 10.8
2010-05-17 07:14:49 51°16.515 2°53.848 332.5 11.2 324 10.9
2010-05-17 07:14:54 51°16.528 2°53.833 331.4 11.4 325 10.8
2010-05-17 07:14:59 51°16.541 2°53.818 330.6 11.6 323 10.9
2010-05-17 07:15:04 51°16.554 2°53.803 329.8 11.8 324 10.9
2010-05-17 07:15:09 51°16.568 2°53.787 329.1 12 323 10.7
2010-05-17 07:15:14 51°16.581 2°53.77 328.6 12.2 323 10.7
2010-05-17 07:15:19 51°16.595 2°53.754 328.3 12.3 322 10.7
2010-05-17 07:15:24 51°16.608 2°53.737 328 12.4 322 10.6
2010-05-17 07:15:29 51°16.622 2°53.72 327.8 12.5 322 10.7
2010-05-17 07:15:34 51°16.636 2°53.703 327.4 12.8 321 10.7
2010-05-17 07:15:40 51°16.652 2°53.68 326 12.9 319 10.6
2010-05-17 07:15:44 51°16.663 2°53.665 325.2 13 320 10.5
2010-05-17 07:15:49 51°16.677 2°53.646 324.4 13.1 317 10.5
2010-05-17 07:15:54 51°16.69 2°53.626 323.8 13.2 318 10.5
2010-05-17 07:16:00 51°16.707 2°53.602 323.3 13.4 317 10.5
2010-05-17 07:16:04 51°16.718 2°53.586 323.1 13.3 318 10.4
2010-05-17 07:16:09 51°16.731 2°53.567 323.1 13.4 317 10.5
2010-05-17 07:16:14 51°16.745 2°53.546 322.8 13.4 317 10.4
2010-05-17 07:16:19 51°16.758 2°53.526 322.8 13.5 317 10.3
2010-05-17 07:16:24 51°16.772 2°53.505 322.7 13.5 317 10.2
2010-05-17 07:16:29 51°16.786 2°53.486 323.1 13.5 318 10.3
2010-05-17 07:16:33 51°16.797 2°53.469 323.3 13.5 318 10.3
2010-05-17 07:16:39 51°16.814 2°53.445 323.5 13.5 318 10.1
2010-05-17 07:16:44 51°16.828 2°53.425 323.8 13.5 318 10.1
2010-05-17 07:16:49 51°16.841 2°53.404 323.1 13.6 316 10
2010-05-17 07:16:54 51°16.855 2°53.384 322.1 13.6 316 9.7
2010-05-17 07:17:00 51°16.871 2°53.358 320.9 13.6 315 9.5
2010-05-17 07:17:04 51°16.882 2°53.341 320.3 13.4 315 8.7
2010-05-17 07:17:09 51°16.894 2°53.32 319.4 13.4 314 8.3
2010-05-17 07:17:14 51°16.907 2°53.299 319.3 13.1 315 7.7
2010-05-17 07:17:20 51°16.922 2°53.274 318.7 12.9 314 7.6
2010-05-17 07:17:24 51°16.932 2°53.258 318.7 12.8 314 7.3
2010-05-17 07:17:30 51°16.946 2°53.233 318.2 12.7 313 7.5
2010-05-17 07:17:34 51°16.956 2°53.217 318.1 12.7 314 7.4
2010-05-17 07:17:40 51°16.971 2°53.192 317.5 12.7 313 7.1
2010-05-17 07:17:44 51°16.98 2°53.175 317.2 12.8 312 7.3
2010-05-17 07:17:49 51°16.992 2°53.154 316.3 12.8 311 -999
2010-05-17 07:17:54 51°17.003 2°53.132 315 12.9 310 7.5
2010-05-17 07:17:59 51°17.015 2°53.11 313.8 13 309 7.5
2010-05-17 07:18:04 51°17.026 2°53.087 313.2 13.1 308 7.4
2010-05-17 07:18:09 51°17.037 2°53.064 312.4 13.1 308 7.6
2010-05-17 07:18:14 51°17.048 2°53.041 311.8 13.2 307 7.6
2010-05-17 07:18:19 51°17.059 2°53.018 311.6 13.3 308 7.8
2010-05-17 07:18:24 51°17.071 2°52.994 311.5 13.3 308 8
2010-05-17 07:18:29 51°17.082 2°52.971 311.9 13.4 309 8.1
2010-05-17 07:18:34 51°17.094 2°52.948 312.4 13.5 309 8.3
2010-05-17 07:18:39 51°17.106 2°52.925 313.1 13.6 310 8.5
2010-05-17 07:18:44 51°17.118 2°52.902 313.8 13.7 310 8.4
2010-05-17 07:18:49 51°17.131 2°52.879 314.8 13.7 312 8.7
2010-05-17 07:18:54 51°17.143 2°52.856 315.3 13.7 311 8.9
2010-05-17 07:19:00 51°17.159 2°52.829 315.8 13.8 312 9
2010-05-17 07:19:04 51°17.169 2°52.811 315.9 13.8 311 8.9
2010-05-17 07:19:09 51°17.182 2°52.788 315.9 13.8 312 9
2010-05-17 07:19:14 51°17.194 2°52.765 315.8 13.7 311 9
2010-05-17 07:19:19 51°17.206 2°52.742 315.5 13.7 311 8.8
2010-05-17 07:19:24 51°17.219 2°52.719 315.1 13.7 311 8.9
2010-05-17 07:19:30 51°17.234 2°52.691 315.1 13.7 310 8.8
2010-05-17 07:19:34 51°17.244 2°52.673 315.1 13.7 310 8.8
2010-05-17 07:19:39 51°17.256 2°52.65 315.1 13.6 310 8.9
2010-05-17 07:19:45 51°17.271 2°52.623 315.4 13.6 311 9
2010-05-17 07:19:49 51°17.281 2°52.605 315.8 13.6 311 8.8
2010-05-17 07:19:54 51°17.293 2°52.582 315.8 13.6 311 8.9
2010-05-17 07:20:00 51°17.308 2°52.555 316.1 13.7 311 8.9
2010-05-17 07:20:04 51°17.318 2°52.536 315.8 13.8 311 9.3
2010-05-17 07:20:10 51°17.333 2°52.509 315.4 13.8 311 9.2
2010-05-17 07:20:14 51°17.343 2°52.49 315.3 13.7 311 9.2
2010-05-17 07:20:20 51°17.357 2°52.463 315.3 13.7 310 9.2
2010-05-17 07:20:24 51°17.367 2°52.444 315.1 13.8 310 9.4
2010-05-17 07:20:30 51°17.382 2°52.416 315.1 13.8 310 9.4
2010-05-17 07:20:34 51°17.392 2°52.397 315.1 13.8 310 9.2
2010-05-17 07:20:40 51°17.406 2°52.37 315.1 13.7 311 9.3
2010-05-17 07:20:44 51°17.417 2°52.351 315.2 13.7 311 9.4
2010-05-17 07:20:49 51°17.429 2°52.329 315.8 13.7 312 9.4
2010-05-17 07:20:54 51°17.442 2°52.306 316 13.7 311 9.3
2010-05-17 07:21:00 51°17.457 2°52.278 315.7 13.7 311 9.6
2010-05-17 07:21:04 51°17.466 2°52.26 315.4 13.7 312 9.8
2010-05-17 07:21:10 51°17.482 2°52.233 316.9 13.7 314 10.3
2010-05-17 07:21:14 51°17.493 2°52.216 317.7 13.8 314 10.6
2010-05-17 07:21:19 51°17.507 2°52.194 318.5 13.8 316 10.4
2010-05-17 07:21:24 51°17.52 2°52.173 319.1 13.8 316 10.3
2010-05-17 07:21:30 51°17.537 2°52.148 319.7 13.7 317 10.4
2010-05-17 07:21:34 51°17.548 2°52.131 320.3 13.7 316 10.3
2010-05-17 07:21:40 51°17.565 2°52.107 320.8 13.7 317 10.4
2010-05-17 07:21:44 51°17.575 2°52.09 320.8 13.7 316 10.5
2010-05-17 07:21:50 51°17.592 2°52.065 320.5 13.7 316 10.4
2010-05-17 07:21:53 51°17.6 2°52.052 320.3 13.7 316 10.2
2010-05-17 07:22:00 51°17.619 2°52.023 320.2 13.6 316 10
2010-05-17 07:22:04 51°17.63 2°52.006 320.4 13.6 316 9.8
2010-05-17 07:22:09 51°17.643 2°51.985 320.4 13.5 315 9.5
2010-05-17 07:22:14 51°17.657 2°51.964 320.7 13.5 316 9.5
2010-05-17 07:22:19 51°17.67 2°51.943 320.7 13.4 316 9.3
2010-05-17 07:22:24 51°17.683 2°51.923 320.7 13.5 316 9.4
2010-05-17 07:22:30 51°17.7 2°51.898 321 13.5 317 9.2
2010-05-17 07:22:34 51°17.711 2°51.882 321.1 13.5 317 9.3
2010-05-17 07:22:39 51°17.724 2°51.861 321.5 13.5 317 9.3
2010-05-17 07:22:44 51°17.738 2°51.841 321.5 13.5 316 9.1
2010-05-17 07:22:50 51°17.754 2°51.816 320.9 13.5 316 9.3
2010-05-17 07:22:54 51°17.765 2°51.799 320.4 13.5 316 9
2010-05-17 07:23:00 51°17.781 2°51.774 320.4 13.6 316 9.1
2010-05-17 07:23:04 51°17.792 2°51.758 320.4 13.5 317 9.2
2010-05-17 07:23:09 51°17.806 2°51.738 321.3 13.5 318 9.2
2010-05-17 07:23:14 51°17.821 2°51.72 323.2 13.5 321 9.4
2010-05-17 07:23:20 51°17.838 2°51.697 325.1 13.5 322 9.3
2010-05-17 07:23:24 51°17.85 2°51.683 326.7 13.5 323 9.5
2010-05-17 07:23:30 51°17.868 2°51.662 328 13.5 324 9.4
2010-05-17 07:23:34 51°17.881 2°51.648 328.9 13.5 324 9.5
2010-05-17 07:23:40 51°17.899 2°51.628 329.6 13.5 326 9.2
2010-05-17 07:23:44 51°17.911 2°51.614 330.3 13.5 326 9.5
2010-05-17 07:23:49 51°17.927 2°51.598 331.1 13.6 326 9.5
2010-05-17 07:23:54 51°17.943 2°51.581 331.1 13.5 326 9.4
2010-05-17 07:24:00 51°17.962 2°51.561 331.4 13.6 326 9.8
2010-05-17 07:24:04 51°17.974 2°51.548 331.6 13.6 327 9.8
2010-05-17 07:24:10 51°17.993 2°51.528 331.7 13.6 327 9.8
2010-05-17 07:24:14 51°18.006 2°51.515 331.8 13.6 327 9.8
2010-05-17 07:24:20 51°18.025 2°51.495 331.8 13.6 327 9.9
2010-05-17 07:24:24 51°18.038 2°51.482 331.7 13.7 327 10.1
2010-05-17 07:24:30 51°18.057 2°51.462 331.5 13.6 326 10
2010-05-17 07:24:34 51°18.069 2°51.449 331.2 13.6 327 10.3
2010-05-17 07:24:40 51°18.088 2°51.429 331.2 13.5 326 10.3
2010-05-17 07:24:44 51°18.1 2°51.415 331.1 13.3 326 10.5
2010-05-17 07:24:50 51°18.118 2°51.396 330.9 13.2 325 10.6
2010-05-17 07:24:54 51°18.13 2°51.383 331 13.1 326 10.8
2010-05-17 07:25:00 51°18.148 2°51.363 331.1 13 325 11
2010-05-17 07:25:04 51°18.16 2°51.35 330.9 12.8 326 11.3
2010-05-17 07:25:10 51°18.176 2°51.332 331.1 12.3 325 11.2
2010-05-17 07:25:14 51°18.187 2°51.32 331 11.5 326 11.3
2010-05-17 07:25:20 51°18.202 2°51.304 331.1 10.8 325 11.2
2010-05-17 07:25:24 51°18.211 2°51.293 331.1 10.1 325 11.3
2010-05-17 07:25:30 51°18.224 2°51.278 331.2 9.7 324 11.5
2010-05-17 07:25:34 51°18.232 2°51.269 330.9 9.3 325 11.5
2010-05-17 07:25:40 51°18.244 2°51.255 330.7 8.8 324 11.7
2010-05-17 07:25:44 51°18.252 2°51.246 330.5 8.4 324 11.7
2010-05-17 07:25:50 51°18.263 2°51.234 330.3 8 323 11.8
2010-05-17 07:25:54 51°18.269 2°51.225 330.3 7.7 324 12.1
2010-05-17 07:26:00 51°18.279 2°51.214 330.3 7.3 323 12
2010-05-17 07:26:04 51°18.285 2°51.206 329.7 6.9 322 11.9
2010-05-17 07:26:10 51°18.294 2°51.195 329.4 6.7 322 12.1
2010-05-17 07:26:14 51°18.299 2°51.189 329.5 6.3 323 12.2
2010-05-17 07:26:20 51°18.307 2°51.179 330.1 5.8 324 12.1
2010-05-17 07:26:24 51°18.312 2°51.174 331.8 5.5 327 12.2
2010-05-17 07:26:29 51°18.318 2°51.167 334.4 5.4 326 12.4
2010-05-17 07:26:34 51°18.325 2°51.162 338.7 5.1 333 12.5
2010-05-17 07:26:40 51°18.332 2°51.156 341.7 4.9 333 12.5
2010-05-17 07:26:44 51°18.337 2°51.153 344.4 4.8 336 12.5
2010-05-17 07:26:50 51°18.344 2°51.148 346.3 4.7 336 12.4
2010-05-17 07:26:54 51°18.349 2°51.144 347.6 4.6 336 12.4
2010-05-17 07:27:00 51°18.356 2°51.14 348.5 4.5 338 12.7
2010-05-17 07:27:04 51°18.36 2°51.137 349 4.4 337 12.6
2010-05-17 07:27:10 51°18.367 2°51.133 348.5 4.3 337 12.3
2010-05-17 07:27:14 51°18.371 2°51.13 347.7 4.2 335 12.5
2010-05-17 07:27:20 51°18.377 2°51.125 346.9 4.2 335 12.8
2010-05-17 07:27:24 51°18.381 2°51.122 345.4 4.1 332 12.7
2010-05-17 07:27:30 51°18.387 2°51.117 344.1 4 333 12.9
2010-05-17 07:27:34 51°18.391 2°51.113 342.8 4 330 12.9
2010-05-17 07:27:40 51°18.397 2°51.108 341.2 4 328 12.8
2010-05-17 07:27:44 51°18.4 2°51.104 339.8 3.9 326 12.8
2010-05-17 07:27:49 51°18.405 2°51.099 338 3.9 326 12.6
2010-05-17 07:27:54 51°18.409 2°51.094 336.6 3.9 324 12.5
2010-05-17 07:28:00 51°18.414 2°51.088 335.8 3.8 324 12.7
2010-05-17 07:28:04 51°18.418 2°51.084 335.4 3.8 323 12.9
2010-05-17 07:28:10 51°18.423 2°51.078 335.4 3.8 323 12.8
2010-05-17 07:28:14 51°18.426 2°51.074 335.7 3.8 323 12.8
2010-05-17 07:28:20 51°18.431 2°51.068 336.2 3.7 324 12.9
2010-05-17 07:28:24 51°18.435 2°51.064 337 3.7 325 12.9
2010-05-17 07:28:30 51°18.44 2°51.059 338 3.7 325 12.8
2010-05-17 07:28:34 51°18.443 2°51.055 339 3.7 327 12.8
2010-05-17 07:28:40 51°18.448 2°51.05 340.2 3.6 328 12.9
2010-05-17 07:28:44 51°18.451 2°51.047 341 3.6 328 12.8
2010-05-17 07:28:50 51°18.457 2°51.042 341.9 3.6 329 12.8
2010-05-17 07:28:54 51°18.46 2°51.038 342.2 3.6 329 13.1
2010-05-17 07:29:00 51°18.465 2°51.033 342.7 3.4 329 13.1
2010-05-17 07:29:04 51°18.468 2°51.031 342.9 3.2 329 12.9
2010-05-17 07:29:10 51°18.472 2°51.026 343 3.1 328 13
2010-05-17 07:29:13 51°18.474 2°51.024 343.3 2.8 329 13.1
2010-05-17 07:29:20 51°18.479 2°51.02 343.4 2.7 325 13.2
2010-05-17 07:29:24 51°18.481 2°51.017 343.5 2.5 326 13.1
2010-05-17 07:29:29 51°18.484 2°51.014 343.5 2.4 324 13
2010-05-17 07:29:34 51°18.486 2°51.011 343.5 2.1 321 13
2010-05-17 07:29:40 51°18.488 2°51.008 343.8 1.9 318 13.1
2010-05-17 07:29:44 51°18.49 2°51.006 344.1 1.6 318 13.1
2010-05-17 07:29:50 51°18.491 2°51.003 344.2 1.5 317 12.8
2010-05-17 07:29:54 51°18.492 2°51.002 344.2 1.4 309 13
2010-05-17 07:30:00 51°18.494 2°50.999 344.2 1.2 308 13.2
2010-05-17 07:30:05 51°18.495 2°50.997 343.8 1.2 306 13.2
2010-05-17 07:30:10 51°18.496 2°50.995 343.1 1.1 308 13
2010-05-17 07:30:14 51°18.496 2°50.994 342.4 1.2 304 13
2010-05-17 07:30:20 51°18.497 2°50.991 341.5 1.1 304 13.2
2010-05-17 07:30:24 51°18.498 2°50.99 340.6 1.1 304 13.3
2010-05-17 07:30:30 51°18.499 2°50.987 339.8 1.1 302 13
2010-05-17 07:30:34 51°18.5 2°50.986 339 1.1 301 13.1
2010-05-17 07:30:40 51°18.5 2°50.983 338.5 1 299 13.1
2010-05-17 07:30:44 51°18.501 2°50.982 337.9 1 296 13.1
2010-05-17 07:30:50 51°18.502 2°50.979 337.4 1 298 13
2010-05-17 07:30:54 51°18.502 2°50.978 336.9 1 294 13
2010-05-17 07:31:00 51°18.503 2°50.975 336.2 1 293 13.3
2010-05-17 07:31:04 51°18.503 2°50.974 335.9 0.9 294 13.1
2010-05-17 07:31:10 51°18.504 2°50.971 335.4 1 293 13.1
2010-05-17 07:31:14 51°18.504 2°50.97 334.8 1 289 13.2
2010-05-17 07:31:20 51°18.505 2°50.967 334.6 0.9 290 13.2
2010-05-17 07:31:24 51°18.505 2°50.966 334.2 1 287 13.1
2010-05-17 07:31:30 51°18.505 2°50.963 334 1 288 13
2010-05-17 07:31:34 51°18.506 2°50.962 333.8 0.9 285 13.2
2010-05-17 07:31:40 51°18.506 2°50.959 333.5 0.9 284 13.3
2010-05-17 07:31:44 51°18.506 2°50.958 333.4 0.9 285 13.2
2010-05-17 07:31:50 51°18.507 2°50.955 333.2 0.9 285 13.2
2010-05-17 07:31:54 51°18.507 2°50.954 333.1 0.9 281 13.2
2010-05-17 07:32:00 51°18.507 2°50.952 333.1 0.8 282 13.3
2010-05-17 07:32:04 51°18.507 2°50.95 333.2 0.8 281 13.1
2010-05-17 07:32:10 51°18.508 2°50.948 333 0.9 279 13.2
2010-05-17 07:32:14 51°18.508 2°50.946 333 0.8 279 13.4
2010-05-17 07:32:19 51°18.508 2°50.944 333.2 0.8 280 13.3
2010-05-17 07:32:24 51°18.508 2°50.943 333.2 0.8 274 13.1
2010-05-17 07:32:30 51°18.508 2°50.941 333.2 0.8 273 13.3
2010-05-17 07:32:33 51°18.508 2°50.94 333.4 0.8 276 13.2
2010-05-17 07:32:39 51°18.508 2°50.937 333.5 0.8 275 13.3
2010-05-17 07:32:44 51°18.508 2°50.936 333.7 0.7 274 13.4
2010-05-17 07:32:49 51°18.508 2°50.934 333.9 0.7 274 13.4
2010-05-17 07:32:54 51°18.508 2°50.933 334 0.7 273 13.4
2010-05-17 07:33:00 51°18.509 2°50.931 334.2 0.7 273 13.3
2010-05-17 07:33:04 51°18.508 2°50.929 334.6 0.7 269 13.2
2010-05-17 07:33:09 51°18.508 2°50.928 334.7 0.8 265 13.2
2010-05-17 07:33:14 51°18.508 2°50.927 335.1 0.7 266 13
2010-05-17 07:33:19 51°18.508 2°50.925 335.4 0.7 266 13
2010-05-17 07:33:24 51°18.508 2°50.924 335.4 0.7 263 13.1
2010-05-17 07:33:29 51°18.508 2°50.922 336.1 0.7 264 13.1
2010-05-17 07:33:33 51°18.508 2°50.921 336.4 0.7 261 13
2010-05-17 07:33:39 51°18.508 2°50.919 336.8 0.7 263 13.2
2010-05-17 07:33:44 51°18.508 2°50.918 337.3 0.7 276 13.1
2010-05-17 07:33:49 51°18.508 2°50.916 337.6 0.8 282 13.3
2010-05-17 07:33:54 51°18.509 2°50.914 337.9 0.8 295 13.4
2010-05-17 07:33:59 51°18.509 2°50.913 338.4 1 302 13.2
2010-05-17 07:34:04 51°18.51 2°50.91 339.2 1.4 311 13
2010-05-17 07:34:09 51°18.512 2°50.908 340.3 1.7 316 13.1
2010-05-17 07:34:15 51°18.515 2°50.904 341.8 2 320 13.3
2010-05-17 07:34:20 51°18.517 2°50.901 343.4 2.4 325 13.3
2010-05-17 07:34:24 51°18.52 2°50.899 344.9 2.8 330 13.1
2010-05-17 07:34:30 51°18.525 2°50.895 346.9 3.2 334 13.2
2010-05-17 07:34:34 51°18.529 2°50.893 349.2 3.7 338 13.3
2010-05-17 07:34:40 51°18.536 2°50.889 352.1 4.3 344 13.1
2010-05-17 07:34:44 51°18.54 2°50.888 356.1 4.6 349 13.2
2010-05-17 07:34:50 51°18.549 2°50.887 1.1 4.8 354 13.3
2010-05-17 07:34:54 51°18.554 2°50.887 6.6 5 1 13.5
2010-05-17 07:35:00 51°18.563 2°50.889 12.4 5.3 8 13.5
2010-05-17 07:35:04 51°18.569 2°50.892 18.2 5.7 17 13.6
2010-05-17 07:35:10 51°18.578 2°50.898 24.3 6 22 13.5
2010-05-17 07:35:14 51°18.584 2°50.904 31.2 6.3 30 13.4
2010-05-17 07:35:20 51°18.593 2°50.914 36.6 6.8 36 13.6
2010-05-17 07:35:24 51°18.599 2°50.923 42.2 7.2 43 13.3
2010-05-17 07:35:30 51°18.608 2°50.937 46.9 7.5 45 13.3
2010-05-17 07:35:34 51°18.613 2°50.949 50.2 8 52 13.3
2010-05-17 07:35:40 51°18.621 2°50.967 55.7 8.3 55 13.3
2010-05-17 07:35:44 51°18.626 2°50.98 58.5 8.6 58 13.3
2010-05-17 07:35:50 51°18.635 2°50.999 57.6 9 52 13.4
2010-05-17 07:35:54 51°18.64 2°51.012 57.6 9.2 59 13.3
2010-05-17 07:36:00 51°18.649 2°51.033 59 9.3 55 13.3
2010-05-17 07:36:04 51°18.655 2°51.047 58.6 9.6 58 13.2
2010-05-17 07:36:10 51°18.664 2°51.069 59.2 9.8 57 13.3
2010-05-17 07:36:14 51°18.67 2°51.084 59.2 10.1 58 13.4
2010-05-17 07:36:20 51°18.679 2°51.107 59.6 10.4 55 13.2
2010-05-17 07:36:24 51°18.685 2°51.124 59.9 10.7 60 13.3
2010-05-17 07:36:29 51°18.693 2°51.144 59.6 11 56 13.3
2010-05-17 07:36:34 51°18.701 2°51.165 59.5 11.2 59 13.2
2010-05-17 07:36:40 51°18.711 2°51.191 59.1 11.4 58 13.3
2010-05-17 07:36:44 51°18.716 2°51.21 63 11.6 66 13.4
2010-05-17 07:36:49 51°18.724 2°51.233 65.2 11.9 63 13.4
2010-05-17 07:36:54 51°18.73 2°51.258 66.8 12 68 13.3
2010-05-17 07:36:59 51°18.736 2°51.282 68.8 12 69 13.3
2010-05-17 07:37:04 51°18.742 2°51.308 69.8 12.2 71 13.3
2010-05-17 07:37:09 51°18.747 2°51.334 71.5 12.3 71 13.3
2010-05-17 07:37:14 51°18.753 2°51.359 72.2 12.3 71 13.2
2010-05-17 07:37:19 51°18.757 2°51.386 73.7 12.3 73 13.3
2010-05-17 07:37:24 51°18.763 2°51.411 73.6 12.4 73 13.2
2010-05-17 07:37:29 51°18.767 2°51.438 74.3 12.5 76 13.3
2010-05-17 07:37:34 51°18.773 2°51.464 73.8 12.4 71 13.2
2010-05-17 07:37:39 51°18.777 2°51.491 74.8 12.3 76 13.1
2010-05-17 07:37:44 51°18.782 2°51.517 75 12.3 73 13.2
2010-05-17 07:37:49 51°18.786 2°51.543 74.7 12.4 75 13.1
2010-05-17 07:37:53 51°18.79 2°51.565 74.7 12.5 73 13.1
2010-05-17 07:37:59 51°18.796 2°51.597 74.2 12.5 74 13.1
2010-05-17 07:38:04 51°18.801 2°51.623 74.5 12.4 74 13
2010-05-17 07:38:09 51°18.805 2°51.65 74.9 12.4 75 13
2010-05-17 07:38:14 51°18.81 2°51.675 74.8 12.4 72 13
2010-05-17 07:38:19 51°18.815 2°51.702 74.1 12.5 75 12.9
2010-05-17 07:38:25 51°18.821 2°51.734 74.1 12.6 72 12.9
2010-05-17 07:38:30 51°18.826 2°51.761 73.8 12.5 74 12.9
2010-05-17 07:38:34 51°18.83 2°51.782 74.5 12.4 73 12.7
2010-05-17 07:38:40 51°18.835 2°51.814 74.8 12.5 75 12.9
2010-05-17 07:38:44 51°18.839 2°51.835 74.4 12.7 73 12.8
2010-05-17 07:38:50 51°18.845 2°51.867 74.2 12.7 74 12.8
2010-05-17 07:38:54 51°18.849 2°51.889 74 12.5 72 12.8
2010-05-17 07:39:00 51°18.855 2°51.921 74.4 12.6 76 12.8
2010-05-17 07:39:04 51°18.859 2°51.942 74.6 12.6 71 12.6
2010-05-17 07:39:10 51°18.865 2°51.974 73.4 12.5 73 12.6
2010-05-17 07:39:14 51°18.869 2°51.995 74.1 12.5 74 12.5
2010-05-17 07:39:20 51°18.875 2°52.027 74.3 12.5 74 12.5
2010-05-17 07:39:24 51°18.879 2°52.048 74.4 12.5 73 12.5
2010-05-17 07:39:30 51°18.885 2°52.079 74.1 12.4 73 12.6
2010-05-17 07:39:34 51°18.889 2°52.101 74.1 12.4 74 12.6
2010-05-17 07:39:40 51°18.896 2°52.132 73.4 12.4 72 12.4
2010-05-17 07:39:44 51°18.899 2°52.153 73.8 12.5 75 12.4
2010-05-17 07:39:50 51°18.905 2°52.185 74.3 12.6 72 12.3
2010-05-17 07:39:54 51°18.909 2°52.206 73.4 12.5 72 12.5
2010-05-17 07:40:00 51°18.915 2°52.238 73.7 12.3 73 12.2
2010-05-17 07:40:04 51°18.919 2°52.258 73.7 12.3 74 12.3
2010-05-17 07:40:10 51°18.925 2°52.29 74.1 12.4 73 12.1
2010-05-17 07:40:14 51°18.929 2°52.311 73.8 12.4 73 12
2010-05-17 07:40:20 51°18.936 2°52.342 73.3 12.5 72 12.1
2010-05-17 07:40:24 51°18.939 2°52.364 73.3 12.3 75 12.1
2010-05-17 07:40:30 51°18.945 2°52.395 73.9 12.3 73 12.1
2010-05-17 07:40:34 51°18.95 2°52.416 73.4 12.4 72 11.9
2010-05-17 07:40:39 51°18.955 2°52.442 73.1 12.5 72 11.9
2010-05-17 07:40:44 51°18.961 2°52.468 72.7 12.4 72 11.9
2010-05-17 07:40:49 51°18.965 2°52.494 73.4 12.4 74 11.8
2010-05-17 07:40:54 51°18.971 2°52.52 73.3 12.5 70 11.7
2010-05-17 07:41:00 51°18.977 2°52.552 73.2 12.5 74 11.7
2010-05-17 07:41:04 51°18.981 2°52.573 73.6 12.5 72 11.6
2010-05-17 07:41:10 51°18.988 2°52.605 73.6 12.6 73 11.7
2010-05-17 07:41:14 51°18.992 2°52.626 73.2 12.5 73 11.7
2010-05-17 07:41:20 51°18.998 2°52.658 73.7 12.6 72 11.7
2010-05-17 07:41:24 51°19.002 2°52.68 73.4 12.6 72 11.6
2010-05-17 07:41:30 51°19.009 2°52.711 73 12.6 72 11.6
2010-05-17 07:41:34 51°19.013 2°52.733 73.2 12.6 74 11.5
2010-05-17 07:41:40 51°19.02 2°52.765 73.8 12.7 71 11.4
2010-05-17 07:41:44 51°19.024 2°52.786 72.9 12.6 72 11.4
2010-05-17 07:41:50 51°19.03 2°52.818 73.4 12.6 73 11.5
2010-05-17 07:41:54 51°19.035 2°52.839 73.6 12.5 72 11.5
2010-05-17 07:42:00 51°19.041 2°52.871 74.1 12.6 73 11.4
2010-05-17 07:42:04 51°19.045 2°52.892 73.8 12.6 72 11.4
2010-05-17 07:42:10 51°19.051 2°52.924 73.5 12.5 74 11.3
2010-05-17 07:42:14 51°19.055 2°52.945 73.5 12.6 71 11.4
2010-05-17 07:42:20 51°19.062 2°52.977 72.9 12.5 73 11.3
2010-05-17 07:42:24 51°19.066 2°52.998 73.3 12.6 72 11.3
2010-05-17 07:42:30 51°19.072 2°53.03 73.4 12.6 73 11.2
2010-05-17 07:42:34 51°19.077 2°53.052 73.8 12.6 71 11.2
2010-05-17 07:42:39 51°19.082 2°53.078 73.2 12.6 73 11.3
2010-05-17 07:42:44 51°19.088 2°53.104 73.4 12.5 72 11.3